createdAt,value
2023-12-09T00:07:39.354Z,4.70
2023-12-09T00:10:06.256Z,4.70
2023-12-09T00:12:32.876Z,4.69
2023-12-09T00:14:59.498Z,4.66
2023-12-09T00:17:26.224Z,4.70
2023-12-09T00:19:52.925Z,4.67
2023-12-09T00:22:20.055Z,4.59
2023-12-09T00:24:46.582Z,4.59
2023-12-09T00:27:13.198Z,4.68
2023-12-09T00:29:39.809Z,4.77
2023-12-09T00:32:06.506Z,4.74
2023-12-09T00:34:33.177Z,4.66
2023-12-09T00:36:59.747Z,4.65
2023-12-09T00:39:26.342Z,4.64
2023-12-09T00:41:53.212Z,4.64
2023-12-09T00:44:22.126Z,4.66
2023-12-09T00:46:49.079Z,4.64
2023-12-09T00:49:15.722Z,4.64
2023-12-09T00:51:42.298Z,4.64
2023-12-09T00:54:08.873Z,4.65
2023-12-09T00:56:35.838Z,4.71
2023-12-09T00:59:03.982Z,4.65
2023-12-09T01:01:30.765Z,4.73
2023-12-09T01:03:57.572Z,4.73
2023-12-09T01:06:24.199Z,4.78
2023-12-09T01:08:50.799Z,4.83
2023-12-09T01:11:17.361Z,4.86
2023-12-09T01:13:44.319Z,4.85
2023-12-09T01:16:10.880Z,4.89
2023-12-09T01:18:37.565Z,4.90
2023-12-09T01:21:04.556Z,4.89
2023-12-09T01:23:31.133Z,4.89
2023-12-09T01:25:57.733Z,4.87
2023-12-09T01:28:24.235Z,4.86
2023-12-09T01:30:50.803Z,4.89
2023-12-09T01:33:17.420Z,4.89
2023-12-09T01:35:44.223Z,4.84
2023-12-09T01:38:10.825Z,4.86
2023-12-09T01:43:51.533Z,4.89
2023-12-09T01:46:19.884Z,4.85
2023-12-09T01:48:46.796Z,4.81
2023-12-09T01:51:16.937Z,4.78
2023-12-09T01:53:43.903Z,4.86
2023-12-09T01:56:13.376Z,4.79
2023-12-09T01:58:40.886Z,4.71
2023-12-09T02:01:07.654Z,4.71
2023-12-09T02:03:35.215Z,4.78
2023-12-09T02:06:01.927Z,4.77
2023-12-09T02:08:28.535Z,4.67
2023-12-09T02:11:01.876Z,4.71
2023-12-09T02:13:40.122Z,4.76
2023-12-09T02:16:21.509Z,4.68
2023-12-09T02:18:49.554Z,4.67
2023-12-09T02:21:16.267Z,4.68
2023-12-09T02:23:42.882Z,4.59
2023-12-09T02:26:18.707Z,4.55
2023-12-09T02:28:57.836Z,4.52
2023-12-09T02:31:28.972Z,4.48
2023-12-09T02:33:57.527Z,4.49
2023-12-09T02:36:26.890Z,4.51
2023-12-09T02:38:55.761Z,4.48
2023-12-09T02:41:23.889Z,4.48
2023-12-09T02:43:50.640Z,4.48
2023-12-09T02:46:17.203Z,4.52
2023-12-09T02:48:43.938Z,4.48
2023-12-09T02:51:10.704Z,4.38
2023-12-09T02:53:37.330Z,4.37
2023-12-09T02:56:04.252Z,4.37
2023-12-09T02:58:30.874Z,4.36
2023-12-09T03:00:57.446Z,4.38
2023-12-09T03:03:24.070Z,4.39
2023-12-09T03:05:50.905Z,4.41
2023-12-09T03:08:17.530Z,4.54
2023-12-09T03:10:44.343Z,4.38
2023-12-09T03:13:11.077Z,4.38
2023-12-09T03:15:37.776Z,4.36
2023-12-09T03:21:53.133Z,4.27
2023-12-09T03:24:19.752Z,4.24
2023-12-09T03:26:50.766Z,4.23
2023-12-09T03:29:17.891Z,4.21
2023-12-09T03:31:44.439Z,4.21
2023-12-09T03:34:11.179Z,4.25
2023-12-09T03:36:37.823Z,4.23
2023-12-09T03:39:04.952Z,4.29
2023-12-09T03:41:31.514Z,4.19
2023-12-09T03:43:58.072Z,4.22
2023-12-09T03:46:24.794Z,4.26
2023-12-09T03:48:51.629Z,4.25
2023-12-09T03:51:18.364Z,4.28
2023-12-09T03:53:45.397Z,4.49
2023-12-09T03:56:14.768Z,4.59
2023-12-09T03:58:41.422Z,4.58
2023-12-09T04:01:08.053Z,4.53
2023-12-09T04:03:34.752Z,4.48
2023-12-09T04:06:02.478Z,4.42
2023-12-09T04:08:29.090Z,4.43
2023-12-09T04:10:56.446Z,4.42
2023-12-09T04:13:23.181Z,4.39
2023-12-09T04:15:49.734Z,4.42
2023-12-09T04:18:16.572Z,4.46
2023-12-09T04:20:43.280Z,4.45
2023-12-09T04:23:09.932Z,4.41
2023-12-09T04:25:36.787Z,4.38
2023-12-09T04:28:03.453Z,4.40
2023-12-09T04:30:30.032Z,4.37
2023-12-09T04:32:57.173Z,4.38
2023-12-09T04:35:23.805Z,4.36
2023-12-09T04:37:50.411Z,4.36
2023-12-09T04:40:18.839Z,4.35
2023-12-09T04:42:45.887Z,4.33
2023-12-09T04:45:12.680Z,4.30
2023-12-09T04:47:39.697Z,4.30
2023-12-09T04:50:09.975Z,4.29
2023-12-09T04:52:39.618Z,4.28
2023-12-09T04:55:40.234Z,4.30
2023-12-09T04:58:16.970Z,4.34
2023-12-09T05:00:43.622Z,4.32
2023-12-09T05:03:10.430Z,4.32
2023-12-09T05:05:37.190Z,4.32
2023-12-09T05:08:04.528Z,4.29
2023-12-09T05:10:31.285Z,4.34
2023-12-09T05:12:58.124Z,4.36
2023-12-09T05:15:24.709Z,4.33
2023-12-09T05:17:51.389Z,4.31
2023-12-09T05:20:18.058Z,4.37
2023-12-09T05:22:46.151Z,4.40
2023-12-09T05:25:13.106Z,4.46
2023-12-09T05:27:39.731Z,4.57
2023-12-09T05:30:07.041Z,4.53
2023-12-09T05:32:33.629Z,4.45
2023-12-09T05:35:00.201Z,4.49
2023-12-09T05:37:26.754Z,4.58
2023-12-09T05:39:53.517Z,4.53
2023-12-09T05:42:20.065Z,4.52
2023-12-09T05:44:46.696Z,4.50
2023-12-09T05:47:13.265Z,4.61
2023-12-09T05:49:39.960Z,4.58
2023-12-09T05:52:06.897Z,4.70
2023-12-09T05:54:33.654Z,4.68
2023-12-09T05:57:00.340Z,4.76
2023-12-09T05:59:27.031Z,4.77
2023-12-09T06:01:55.785Z,4.72
2023-12-09T06:04:22.570Z,4.68
2023-12-09T06:06:49.391Z,4.67
2023-12-09T06:09:17.749Z,4.77
2023-12-09T06:11:44.289Z,4.84
2023-12-09T06:14:10.791Z,4.86
2023-12-09T06:16:37.383Z,4.88
2023-12-09T06:19:04.240Z,5.00
2023-12-09T06:21:31.152Z,4.97
2023-12-09T06:23:58.103Z,4.80
2023-12-09T06:26:24.685Z,4.86
2023-12-09T06:28:51.249Z,4.99
2023-12-09T06:31:17.840Z,4.96
2023-12-09T06:33:44.525Z,5.04
2023-12-09T06:36:54.017Z,5.03
2023-12-09T06:40:08.309Z,5.09
2023-12-09T06:42:37.096Z,5.14
2023-12-09T06:45:04.228Z,5.13
2023-12-09T06:47:30.875Z,5.12
2023-12-09T06:49:57.499Z,5.12
2023-12-09T06:52:24.320Z,5.11
2023-12-09T06:54:51.005Z,5.06
2023-12-09T06:57:17.608Z,5.09
2023-12-09T06:59:44.160Z,5.03
2023-12-09T07:02:10.719Z,5.01
2023-12-09T07:04:37.583Z,4.99
2023-12-09T07:07:04.355Z,5.12
2023-12-09T07:09:31.460Z,5.10
2023-12-09T07:12:02.049Z,5.13
2023-12-09T07:14:29.551Z,5.16
2023-12-09T07:16:56.315Z,5.15
2023-12-09T07:19:26.007Z,5.16
2023-12-09T07:21:53.864Z,5.14
2023-12-09T07:24:28.692Z,5.13
2023-12-09T07:29:36.452Z,5.05
2023-12-09T07:32:03.995Z,5.05
2023-12-09T07:34:30.735Z,5.06
2023-12-09T07:36:57.417Z,5.12
2023-12-09T07:39:24.565Z,5.16
2023-12-09T07:41:52.267Z,5.18
2023-12-09T07:44:20.543Z,5.21
2023-12-09T07:46:51.963Z,5.17
2023-12-09T07:49:18.573Z,5.17
2023-12-09T07:51:45.127Z,5.19
2023-12-09T07:54:11.825Z,5.19
2023-12-09T07:56:38.467Z,5.20
2023-12-09T07:59:05.103Z,5.20
2023-12-09T08:01:31.686Z,5.18
2023-12-09T08:03:58.450Z,5.21
2023-12-09T08:06:25.131Z,5.20
2023-12-09T08:08:52.316Z,5.20
2023-12-09T08:11:22.157Z,5.26
2023-12-09T08:13:48.687Z,5.29
2023-12-09T08:16:15.854Z,5.31
2023-12-09T08:18:44.252Z,5.34
2023-12-09T08:21:11.461Z,5.38
2023-12-09T08:23:39.495Z,5.36
2023-12-09T08:26:06.397Z,5.37
2023-12-09T08:28:32.939Z,5.38
2023-12-09T08:30:59.791Z,5.43
2023-12-09T08:33:26.622Z,5.42
2023-12-09T08:35:53.218Z,5.47
2023-12-09T08:38:19.753Z,5.43
2023-12-09T08:40:46.307Z,5.45
2023-12-09T08:43:12.860Z,5.49
2023-12-09T08:45:39.426Z,5.51
2023-12-09T08:48:06.075Z,5.48
2023-12-09T08:50:32.646Z,5.45
2023-12-09T08:52:59.188Z,5.48
2023-12-09T08:55:25.677Z,5.47
2023-12-09T08:57:53.382Z,5.49
2023-12-09T09:00:22.118Z,5.45
2023-12-09T09:02:49.321Z,5.53
2023-12-09T09:05:16.111Z,5.59
2023-12-09T09:07:46.197Z,5.56
2023-12-09T09:10:12.832Z,5.61
2023-12-09T09:12:39.385Z,5.56
2023-12-09T09:15:08.356Z,5.53
2023-12-09T09:17:38.473Z,5.53
2023-12-09T09:20:06.623Z,5.51
2023-12-09T09:22:33.695Z,5.58
2023-12-09T09:25:00.407Z,5.55
2023-12-09T09:27:27.136Z,5.54
2023-12-09T09:29:54.336Z,5.61
2023-12-09T09:32:22.273Z,5.70
2023-12-09T09:34:49.207Z,5.74
2023-12-09T09:37:15.994Z,5.76
2023-12-09T09:39:42.584Z,5.72
2023-12-09T09:42:28.077Z,5.74
2023-12-09T09:45:12.940Z,5.75
2023-12-09T09:47:44.229Z,5.67
2023-12-09T09:50:11.808Z,5.71
2023-12-09T09:52:42.017Z,5.68
2023-12-09T09:55:09.350Z,5.62
2023-12-09T09:57:35.915Z,5.77
2023-12-09T10:00:03.089Z,5.81
2023-12-09T10:02:37.589Z,5.79
2023-12-09T10:05:04.557Z,5.77
2023-12-09T10:07:31.843Z,5.86
2023-12-09T10:09:59.050Z,5.81
2023-12-09T10:12:27.843Z,5.83
2023-12-09T10:14:54.643Z,5.79
2023-12-09T10:17:21.506Z,5.78
2023-12-09T10:19:48.256Z,5.78
2023-12-09T10:22:15.196Z,5.78
2023-12-09T10:24:50.582Z,5.77
2023-12-09T10:27:20.217Z,5.71
2023-12-09T10:29:47.875Z,5.77
2023-12-09T10:32:14.968Z,5.78
2023-12-09T10:34:42.113Z,5.70
2023-12-09T10:37:09.784Z,5.74
2023-12-09T10:39:36.762Z,5.77
2023-12-09T10:42:06.743Z,5.76
2023-12-09T10:44:33.379Z,5.74
2023-12-09T10:46:59.871Z,5.76
2023-12-09T10:49:26.541Z,5.83
2023-12-09T10:51:53.245Z,5.88
2023-12-09T10:54:20.009Z,5.90
2023-12-09T10:56:46.950Z,5.95
2023-12-09T10:59:15.095Z,5.98
2023-12-09T11:01:42.265Z,5.95
2023-12-09T11:04:10.310Z,5.94
2023-12-09T11:06:38.938Z,5.99
2023-12-09T11:09:07.375Z,5.98
2023-12-09T11:11:33.940Z,5.98
2023-12-09T11:14:00.481Z,6.00
2023-12-09T11:16:30.119Z,6.10
2023-12-09T11:18:59.581Z,6.17
2023-12-09T11:21:30.123Z,6.23
2023-12-09T11:23:58.427Z,6.28
2023-12-09T11:26:27.909Z,6.30
2023-12-09T11:29:06.180Z,6.33
2023-12-09T11:31:39.816Z,6.50
2023-12-09T11:34:11.405Z,6.59
2023-12-09T11:36:39.790Z,6.68
2023-12-09T11:39:12.694Z,6.73
2023-12-09T11:41:41.539Z,6.77
2023-12-09T11:44:09.929Z,6.62
2023-12-09T11:46:37.281Z,6.62
2023-12-09T11:49:05.701Z,6.62
2023-12-09T11:51:35.572Z,6.46
2023-12-09T11:54:04.840Z,6.49
2023-12-09T11:56:32.370Z,6.41
2023-12-09T11:58:59.546Z,6.44
2023-12-09T12:01:27.486Z,6.47
2023-12-09T12:03:54.204Z,6.41
2023-12-09T12:06:23.510Z,6.52
2023-12-09T12:08:55.072Z,6.65
2023-12-09T12:11:23.672Z,6.72
2023-12-09T12:13:51.045Z,6.63
2023-12-09T12:16:17.934Z,6.78
2023-12-09T12:18:45.502Z,6.77
2023-12-09T12:21:12.388Z,6.67
2023-12-09T12:23:40.519Z,6.67
2023-12-09T12:26:07.431Z,6.64
2023-12-09T12:28:33.975Z,6.56
2023-12-09T12:31:01.133Z,6.55
2023-12-09T12:33:33.966Z,6.58
2023-12-09T12:36:02.042Z,6.50
2023-12-09T12:38:29.155Z,6.50
2023-12-09T12:40:58.121Z,6.50
2023-12-09T12:43:29.417Z,6.48
2023-12-09T12:45:59.154Z,6.48
2023-12-09T12:48:26.166Z,6.43
2023-12-09T12:50:53.814Z,6.37
2023-12-09T12:53:21.487Z,6.29
2023-12-09T12:55:48.146Z,6.26
2023-12-09T12:58:14.639Z,6.25
2023-12-09T13:00:41.362Z,6.19
2023-12-09T13:03:08.621Z,6.10
2023-12-09T13:05:35.905Z,5.94
2023-12-09T13:08:02.731Z,5.75
2023-12-09T13:10:29.345Z,5.72
2023-12-09T13:12:56.071Z,5.67
2023-12-09T13:15:22.870Z,5.59
2023-12-09T13:17:49.658Z,5.54
2023-12-09T13:20:16.483Z,5.47
2023-12-09T13:22:43.164Z,5.41
2023-12-09T13:25:10.783Z,5.39
2023-12-09T13:27:38.528Z,5.36
2023-12-09T13:30:08.288Z,5.28
2023-12-09T13:32:36.078Z,5.21
2023-12-09T13:35:04.365Z,5.19
2023-12-09T13:37:31.326Z,5.09
2023-12-09T13:39:58.133Z,5.12
2023-12-09T13:42:25.004Z,5.09
2023-12-09T13:44:52.677Z,5.09
2023-12-09T13:47:20.782Z,5.14
2023-12-09T13:49:48.022Z,5.17
2023-12-09T13:52:16.749Z,5.13
2023-12-09T13:54:44.066Z,5.08
2023-12-09T13:57:11.033Z,5.12
2023-12-09T13:59:37.675Z,5.19
2023-12-09T14:02:04.453Z,5.25
2023-12-09T14:04:31.242Z,5.22
2023-12-09T14:06:57.874Z,5.26
2023-12-09T14:09:24.387Z,5.20
2023-12-09T14:11:50.911Z,5.17
2023-12-09T14:14:17.433Z,5.10
2023-12-09T14:16:44.028Z,5.07
2023-12-09T14:19:11.674Z,5.06
2023-12-09T14:21:39.301Z,5.02
2023-12-09T14:24:06.572Z,5.01
2023-12-09T14:26:35.388Z,5.03
2023-12-09T14:29:02.603Z,5.02
2023-12-09T14:31:29.175Z,4.97
2023-12-09T14:33:55.974Z,4.95
2023-12-09T14:36:22.992Z,4.94
2023-12-09T14:38:49.930Z,4.92
2023-12-09T14:41:16.711Z,4.92
2023-12-09T14:43:44.596Z,4.93
2023-12-09T14:46:13.242Z,4.90
2023-12-09T14:48:40.132Z,4.91
2023-12-09T14:51:07.785Z,4.90
2023-12-09T14:53:34.467Z,4.87
2023-12-09T14:56:01.871Z,4.92
2023-12-09T14:58:28.593Z,4.90
2023-12-09T15:00:55.463Z,4.93
2023-12-09T15:03:22.190Z,4.85
2023-12-09T15:05:49.086Z,4.87
2023-12-09T15:08:15.583Z,4.80
2023-12-09T15:10:42.202Z,4.81
2023-12-09T15:13:09.015Z,4.79
2023-12-09T15:15:35.560Z,4.78
2023-12-09T15:18:02.346Z,4.80
2023-12-09T15:20:29.036Z,4.75
2023-12-09T15:22:55.595Z,4.68
2023-12-09T15:25:22.091Z,4.70
2023-12-09T15:27:48.692Z,4.69
2023-12-09T15:30:15.561Z,4.67
2023-12-09T15:32:43.938Z,4.68
2023-12-09T15:35:11.107Z,4.66
2023-12-09T15:37:38.381Z,4.66
2023-12-09T15:40:09.848Z,4.66
2023-12-09T15:42:39.438Z,4.65
2023-12-09T15:45:06.676Z,4.66
2023-12-09T15:47:33.576Z,4.69
2023-12-09T15:50:00.404Z,4.66
2023-12-09T15:52:27.306Z,4.64
2023-12-09T15:54:54.153Z,4.63
2023-12-09T15:57:20.699Z,4.61
2023-12-09T15:59:54.207Z,4.61
2023-12-09T16:02:21.857Z,4.63
2023-12-09T16:04:48.796Z,4.62
2023-12-09T16:07:15.677Z,4.65
2023-12-09T16:09:47.946Z,4.60
2023-12-09T16:12:19.202Z,4.63
2023-12-09T16:14:52.446Z,4.59
2023-12-09T16:17:19.500Z,4.58
2023-12-09T16:19:46.772Z,4.62
2023-12-09T16:22:13.802Z,4.60
2023-12-09T16:24:40.374Z,4.59
2023-12-09T16:27:06.910Z,4.61
2023-12-09T16:29:33.408Z,4.55
2023-12-09T16:31:59.940Z,4.54
2023-12-09T16:34:26.615Z,4.58
2023-12-09T16:36:53.231Z,4.60
2023-12-09T16:39:19.879Z,4.58
2023-12-09T16:41:46.378Z,4.62
2023-12-09T16:44:12.879Z,4.62
2023-12-09T16:46:40.326Z,4.64
2023-12-09T16:49:09.104Z,4.64
2023-12-09T16:51:36.049Z,4.68
2023-12-09T16:54:02.805Z,4.62
2023-12-09T16:56:29.665Z,4.65
2023-12-09T16:58:57.611Z,4.64
2023-12-09T17:01:24.278Z,4.65
2023-12-09T17:03:50.896Z,4.65
2023-12-09T17:06:17.576Z,4.67
2023-12-09T17:08:44.179Z,4.65
2023-12-09T17:11:10.810Z,4.64
2023-12-09T17:13:37.372Z,4.60
2023-12-09T17:16:04.101Z,4.58
2023-12-09T17:18:30.830Z,4.58
2023-12-09T17:20:58.711Z,4.65
2023-12-09T17:23:25.441Z,4.65
2023-12-09T17:25:52.417Z,4.66
2023-12-09T17:28:19.883Z,4.64
2023-12-09T17:30:46.610Z,4.66
2023-12-09T17:33:13.320Z,4.67
2023-12-09T17:35:39.850Z,4.70
2023-12-09T17:38:06.353Z,4.70
2023-12-09T17:40:32.938Z,4.71
2023-12-09T17:42:59.475Z,4.71
2023-12-09T17:45:26.159Z,4.74
2023-12-09T17:47:52.878Z,4.74
2023-12-09T17:50:19.512Z,4.72
2023-12-09T17:52:46.018Z,4.78
2023-12-09T17:55:14.028Z,4.74
2023-12-09T17:57:41.172Z,4.79
2023-12-09T18:00:08.950Z,4.72
2023-12-09T18:02:35.517Z,4.76
2023-12-09T18:05:02.161Z,4.80
2023-12-09T18:07:29.296Z,4.72
2023-12-09T18:09:55.924Z,4.70
2023-12-09T18:12:22.459Z,4.68
2023-12-09T18:14:49.056Z,4.68
2023-12-09T18:17:15.717Z,4.67
2023-12-09T18:19:43.407Z,4.69
2023-12-09T18:22:10.058Z,4.68
2023-12-09T18:24:36.778Z,4.76
2023-12-09T18:27:03.744Z,4.74
2023-12-09T18:29:30.561Z,4.82
2023-12-09T18:31:57.054Z,4.88
2023-12-09T18:34:23.689Z,4.92
2023-12-09T18:36:50.609Z,5.00
2023-12-09T18:39:20.650Z,5.02
2023-12-09T18:41:47.374Z,4.99
2023-12-09T18:44:13.913Z,5.01
2023-12-09T18:46:40.479Z,5.08
2023-12-09T18:49:09.209Z,5.13
2023-12-09T18:51:35.804Z,5.21
2023-12-09T18:54:02.633Z,5.22
2023-12-09T18:56:29.243Z,5.25
2023-12-09T18:58:55.745Z,5.32
2023-12-09T19:01:23.186Z,5.31
2023-12-09T19:03:49.929Z,5.39
2023-12-09T19:06:16.550Z,5.45
2023-12-09T19:08:43.640Z,5.49
2023-12-09T19:11:10.185Z,5.52
2023-12-09T19:13:36.767Z,5.60
2023-12-09T19:16:04.000Z,5.64
2023-12-09T19:18:30.671Z,5.65
2023-12-09T19:20:57.308Z,5.73
2023-12-09T19:23:23.787Z,5.74
2023-12-09T19:25:50.429Z,5.83
2023-12-09T19:28:17.073Z,5.90
2023-12-09T19:30:43.723Z,5.98
2023-12-09T19:33:10.411Z,6.03
2023-12-09T19:35:37.210Z,6.04
2023-12-09T19:38:04.274Z,6.17
2023-12-09T19:40:31.275Z,6.28
2023-12-09T19:42:58.081Z,6.24
2023-12-09T19:45:27.776Z,6.27
2023-12-09T19:47:57.487Z,6.30
2023-12-09T19:50:25.091Z,6.36
2023-12-09T19:52:52.226Z,6.46
2023-12-09T19:55:18.869Z,6.59
2023-12-09T19:57:45.681Z,6.61
2023-12-09T20:00:15.844Z,6.65
2023-12-09T20:02:45.249Z,6.65
2023-12-09T20:05:12.054Z,6.73
2023-12-09T20:07:38.685Z,6.73
2023-12-09T20:10:05.797Z,6.74
2023-12-09T20:12:32.438Z,6.73
2023-12-09T20:14:59.202Z,6.83
2023-12-09T20:17:25.809Z,6.83
2023-12-09T20:19:52.430Z,6.82
2023-12-09T20:22:21.166Z,6.83
2023-12-09T20:24:47.951Z,6.84
2023-12-09T20:27:14.741Z,6.80
2023-12-09T20:29:41.383Z,6.85
2023-12-09T20:32:07.943Z,6.83
2023-12-09T20:34:34.577Z,6.83
2023-12-09T20:37:02.268Z,6.87
2023-12-09T20:39:28.811Z,6.86
2023-12-09T20:41:55.319Z,6.98
2023-12-09T20:44:21.785Z,7.13
2023-12-09T20:46:48.318Z,7.10
2023-12-09T20:49:18.080Z,7.17
2023-12-09T20:51:45.893Z,7.23
2023-12-09T20:54:12.859Z,7.20
2023-12-09T20:56:39.713Z,7.22
2023-12-09T20:59:09.132Z,7.19
2023-12-09T21:01:44.892Z,7.19
2023-12-09T21:04:12.031Z,7.22
2023-12-09T21:06:38.647Z,7.20
2023-12-09T21:09:05.733Z,7.25
2023-12-09T21:11:35.638Z,7.24
2023-12-09T21:14:02.389Z,7.25
2023-12-09T21:16:28.884Z,7.23
2023-12-09T21:18:56.135Z,7.26
2023-12-09T21:21:23.019Z,7.25
2023-12-09T21:23:50.230Z,7.31
2023-12-09T21:26:16.852Z,7.35
2023-12-09T21:28:43.493Z,7.39
2023-12-09T21:31:13.561Z,7.42
2023-12-09T21:33:41.003Z,7.44
2023-12-09T21:36:12.850Z,7.55
2023-12-09T21:38:40.510Z,7.52
2023-12-09T21:41:07.118Z,7.55
2023-12-09T21:43:36.132Z,7.47
2023-12-09T21:46:02.842Z,7.47
2023-12-09T21:48:29.683Z,7.44
2023-12-09T21:50:56.411Z,7.35
2023-12-09T21:53:33.604Z,7.36
2023-12-09T21:56:00.324Z,7.23
2023-12-09T21:58:36.222Z,7.09
2023-12-09T22:01:02.824Z,7.00
2023-12-09T22:03:29.545Z,6.85
2023-12-09T22:05:56.103Z,6.77
2023-12-09T22:08:22.623Z,6.74
2023-12-09T22:10:57.506Z,6.78
2023-12-09T22:16:18.948Z,6.60
2023-12-09T22:18:45.627Z,6.51
2023-12-09T22:21:12.395Z,6.44
2023-12-09T22:23:39.064Z,6.40
2023-12-09T22:26:05.780Z,6.42
2023-12-09T22:28:33.080Z,6.42
2023-12-09T22:31:03.560Z,6.51
2023-12-09T22:33:30.170Z,6.45
2023-12-09T22:35:56.775Z,6.49
2023-12-09T22:38:23.321Z,6.54
2023-12-09T22:40:50.056Z,6.49
2023-12-09T22:43:16.612Z,6.43
2023-12-09T22:45:43.152Z,6.65
2023-12-09T22:48:10.056Z,6.57
2023-12-09T22:50:36.642Z,6.63
2023-12-09T22:53:03.791Z,6.56
2023-12-09T22:55:30.327Z,6.56
2023-12-09T22:57:56.942Z,6.63
2023-12-09T23:00:33.484Z,6.70
2023-12-09T23:03:03.051Z,6.63
2023-12-09T23:05:29.691Z,6.56
2023-12-09T23:07:56.243Z,6.70
2023-12-09T23:10:22.805Z,6.74
2023-12-09T23:12:49.606Z,6.81
2023-12-09T23:15:16.281Z,6.88
2023-12-09T23:17:42.979Z,6.89
2023-12-09T23:20:10.160Z,6.88
2023-12-09T23:22:36.689Z,6.82
2023-12-09T23:25:03.553Z,6.89
2023-12-09T23:27:30.294Z,6.79
2023-12-09T23:29:56.794Z,6.84
2023-12-09T23:32:23.561Z,6.82
2023-12-09T23:34:50.159Z,6.76
2023-12-09T23:37:16.789Z,6.88
2023-12-09T23:39:44.404Z,6.83
2023-12-09T23:42:11.023Z,6.89
2023-12-09T23:44:37.564Z,6.76
2023-12-09T23:47:04.308Z,6.71
2023-12-09T23:49:30.812Z,6.73
2023-12-09T23:51:57.325Z,6.87
2023-12-09T23:54:23.997Z,6.85
2023-12-09T23:56:50.507Z,6.93
2023-12-09T23:59:16.980Z,7.09
